Latest Weather Observations for Pallamana

IDS60801

Issued at 7:21 pm CST Monday 4 May 2026 (issued every 10 minutes, with the page automatically refreshed every 10 minutes)

About weather observations | Map of weather stations | Latest weather observations for SA | Other Formats
Station Details ID: 024584 Name: PALLAMANA AERODROME Lat: -35.06 Lon: 139.23 Height: 45.0 m
Data from the previous 72 hours. | See also: Recent months at Pallamana
Date/Time
CST
Temp
°C
App
Temp
°C
Dew
Point
°C
Rel
Hum
%
Delta-T
°C
Wind Press
QNH
hPa
Press
MSL
hPa
Rain since
9am
mm
Dir  Spd
km/h
Gust
km/h
Spd
kts
Gust
kts
04/07:00pm 12.9 11.6 11.3 90 0.8 SW 9 11 5 6 1018.2 1018.2 0.0
04/06:30pm 13.4 11.4 11.6 89 1.0 SW 13 15 7 8 1017.6 1017.6 0.0
04/06:00pm 13.6 11.0 10.8 83 1.5 SW 15 20 8 11 1017.2 1017.2 0.0
04/05:30pm 15.8 11.6 11.2 74 2.5 WSW 24 37 13 20 1016.6 1016.6 0.0
04/05:00pm 17.1 13.7 10.7 66 3.4 WSW 19 24 10 13 1016.1 1016.1 0.0
04/04:30pm 17.7 14.3 11.3 66 3.5 WSW 20 26 11 14 1015.9 1015.9 0.0
04/04:00pm 18.2 14.5 10.3 60 4.2 WSW 20 30 11 16 1015.5 1015.5 0.0
04/03:30pm 18.1 13.6 10.0 59 4.3 W 24 32 13 17 1015.4 1015.4 0.0
04/03:00pm 19.5 14.4 10.5 56 4.9 W 28 37 15 20 1014.9 1014.9 0.0
04/02:30pm 19.4 14.6 10.4 56 4.9 W 26 41 14 22 1014.5 1014.5 0.0
04/02:00pm 19.6 14.4 10.3 55 5.0 W 28 37 15 20 1014.1 1014.1 0.0
04/01:30pm 19.8 15.1 10.8 56 4.9 W 26 41 14 22 1014.0 1014.0 0.0
04/01:21pm 19.9 14.9 11.1 57 4.8 W 28 46 15 25 1014.1 1014.1 0.0
04/01:00pm 19.1 14.2 11.2 60 4.3 W 28 39 15 21 1014.1 1014.1 0.0
04/12:30pm 18.7 13.7 11.0 61 4.2 W 28 37 15 20 1014.4 1014.4 0.0
04/12:00pm 19.4 15.0 11.7 61 4.3 W 26 33 14 18 1014.5 1014.5 0.0
04/11:30am 18.6 15.6 12.6 68 3.4 WSW 20 30 11 16 1014.5 1014.5 0.0
04/11:00am 16.2 11.2 12.2 77 2.2 W 30 37 16 20 1014.5 1014.5 0.0
04/10:30am 17.2 12.9 11.9 71 2.9 W 26 35 14 19 1014.2 1014.2 0.0
04/10:00am 16.5 12.9 11.9 74 2.5 W 22 35 12 19 1014.0 1014.0 0.0
04/09:30am 16.7 13.4 12.8 78 2.2 W 22 33 12 18 1013.7 1013.7 0.0
04/09:00am 15.6 13.4 13.3 86 1.3 WNW 17 24 9 13 1013.4 1013.4 7.4
04/08:30am 13.9 13.5 13.0 94 0.5 NW 7 9 4 5 1013.3 1013.3 7.2
04/08:00am 13.5 12.7 13.0 97 0.3 NNW 9 11 5 6 1012.9 1012.9 7.2
04/07:54am 13.5 12.7 12.9 96 0.3 NW 9 19 5 10 1012.7 1012.7 7.2
04/07:30am 13.3 12.1 12.8 97 0.3 WNW 11 19 6 10 1012.5 1012.4 6.4
04/07:04am 13.4 11.3 12.5 94 0.5 WNW 15 19 8 10 1012.1 1012.0 3.4
04/07:01am 13.5 11.5 12.6 94 0.5 WNW 15 20 8 11 1012.0 1011.9 3.0
04/07:00am 13.5 11.5 12.6 94 0.5 WNW 15 20 8 11 1012.0 1011.9 2.8
04/06:49am 13.5 11.4 12.4 93 0.6 WNW 15 22 8 12 1011.9 1011.8 2.6
04/06:30am 13.7 11.1 11.9 89 1.0 WNW 17 24 9 13 1011.6 1011.5 2.2
04/06:00am 13.7 11.7 11.6 87 1.1 NW 13 19 7 10 1011.3 1011.2 2.2
04/05:30am 13.1 10.7 11.3 89 1.0 NW 15 20 8 11 1010.9 1010.9 2.2
04/05:00am 13.2 10.8 11.3 88 1.0 NW 15 19 8 10 1010.9 1010.9 2.2
04/04:30am 12.8 10.7 11.2 90 0.8 NW 13 17 7 9 1010.7 1010.7 2.2
04/04:00am 13.3 10.5 11.2 87 1.1 NW 17 20 9 11 1010.9 1010.9 2.2
04/03:30am 13.2 10.7 10.9 86 1.2 NW 15 20 8 11 1010.9 1010.9 2.0
04/03:00am 12.9 10.9 11.5 91 0.7 NW 13 22 7 12 1010.9 1010.9 2.0
04/02:30am 12.2 9.4 11.3 94 0.5 N 17 20 9 11 1011.1 1011.1 2.0
04/02:00am 12.6 9.9 11.8 95 0.4 NNW 17 22 9 12 1011.4 1011.3 2.0
04/01:30am 13.0 10.2 11.4 90 0.8 NNW 17 22 9 12 1011.5 1011.4 1.8
04/01:00am 13.6 10.1 11.0 84 1.4 NNW 20 28 11 15 1011.5 1011.4 1.0
04/12:30am 13.3 9.0 10.7 84 1.4 NNW 24 32 13 17 1011.5 1011.4 1.0
04/12:00am 13.1 9.5 10.5 84 1.4 NNW 20 28 11 15 1011.8 1011.7 1.0
 
Date/Time
CST
Temp
°C
App
Temp
°C
Dew
Point
°C
Rel
Hum
%
Delta-T
°C
Wind Press
QNH
hPa
Press
MSL
hPa
Rain since
9am
mm
Dir  Spd
km/h
Gust
km/h
Spd
kts
Gust
kts
03/11:30pm 13.2 9.1 11.4 89 1.0 NNW 24 35 13 19 1012.1 1012.0 1.0
03/11:00pm 12.0 9.3 10.4 90 0.8 NNW 15 20 8 11 1012.2 1012.1 1.0
03/10:30pm 13.2 10.0 10.0 81 1.7 NW 17 24 9 13 1012.4 1012.3 1.0
03/10:00pm 12.9 9.7 11.1 89 0.9 NNW 19 22 10 12 1012.4 1012.3 1.0
03/09:30pm 13.4 10.7 11.8 90 0.9 NNW 17 30 9 16 1012.7 1012.7 1.0
03/09:00pm 13.2 12.0 11.6 90 0.9 NW 9 15 5 8 1012.5 1012.4 0.6
03/08:30pm 14.4 11.9 11.2 81 1.7 NW 15 20 8 11 1012.5 1012.4 0.2
03/08:00pm 14.3 10.7 10.7 79 1.9 N 20 28 11 15 1012.3 1012.2 0.2
03/07:30pm 13.0 12.0 10.9 87 1.1 NW 7 13 4 7 1012.0 1011.9 0.2
03/07:00pm 14.5 11.0 10.9 79 1.9 WNW 20 33 11 18 1012.1 1012.0 0.0
03/06:30pm 15.2 11.6 10.0 71 2.7 NNW 19 24 10 13 1011.6 1011.5 0.0
03/06:00pm 14.7 10.9 9.1 69 2.9 NNW 19 26 10 14 1011.3 1011.2 0.0
03/05:30pm 15.5 10.0 9.0 65 3.3 NW 28 37 15 20 1011.0 1011.0 0.0
03/05:00pm 16.3 11.3 9.7 65 3.5 NNW 26 35 14 19 1011.0 1011.0 0.0
03/04:30pm 16.3 12.0 10.8 70 2.9 NW 24 35 13 19 1010.7 1010.7 0.0
03/04:07pm 18.0 11.3 8.3 53 5.0 WNW 33 52 18 28 1010.4 1010.4 0.0
03/04:00pm 18.4 11.8 8.4 52 5.2 NW 33 48 18 26 1010.3 1010.3 0.0
03/03:30pm 18.9 10.5 7.4 47 5.9 NW 41 59 22 32 1010.4 1010.4 0.0
03/03:00pm 20.1 13.2 8.8 48 6.0 NW 35 57 19 31 1010.1 1010.1 0.0
03/02:48pm 19.2 12.4 7.9 48 5.8 NW 33 52 18 28 1010.1 1010.1 0.0
03/02:30pm 18.9 12.3 8.6 51 5.4 NW 33 46 18 25 1010.2 1010.2 0.0
03/02:17pm 19.3 12.8 8.0 48 5.8 NW 32 50 17 27 1010.1 1010.1 0.0
03/02:00pm 18.3 11.0 8.6 53 5.0 NW 37 52 20 28 1010.2 1010.2 0.0
03/01:30pm 17.8 12.5 9.9 60 4.2 NW 28 43 15 23 1010.7 1010.7 0.0
03/01:08pm 18.1 12.2 9.2 56 4.7 NW 30 48 16 26 1010.7 1010.7 0.0
03/01:00pm 18.1 11.8 8.9 55 4.8 NNW 32 46 17 25 1010.7 1010.7 0.0
03/12:45pm 17.9 12.3 8.7 55 4.8 NW 28 46 15 25 1010.8 1010.8 0.0
03/12:30pm 17.9 11.9 8.7 55 4.8 NW 30 41 16 22 1010.9 1010.9 0.0
03/12:04pm 18.6 12.0 8.6 52 5.2 NNW 33 52 18 28 1011.0 1011.0 0.0
03/12:00pm 18.3 11.9 8.6 53 5.0 NW 32 44 17 24 1011.0 1011.0 0.0
03/11:40am 18.3 11.6 8.3 52 5.2 NW 33 56 18 30 1011.1 1011.1 0.0
03/11:30am 18.0 10.6 8.3 53 5.0 NW 37 50 20 27 1011.3 1011.2 0.0
03/11:04am 17.6 10.3 8.7 56 4.6 NW 37 57 20 31 1011.6 1011.5 0.0
03/11:00am 17.5 10.5 8.6 56 4.6 NW 35 52 19 28 1011.4 1011.3 0.0
03/10:30am 17.4 10.5 8.8 57 4.5 NW 35 56 19 30 1011.6 1011.5 0.0
03/10:25am 17.0 9.6 8.2 56 4.5 NW 37 56 20 30 1011.6 1011.5 0.0
03/10:00am 16.5 9.6 8.7 60 4.0 NNW 35 50 19 27 1011.9 1011.8 0.0
03/09:30am 15.9 10.1 9.6 66 3.3 NNW 30 41 16 22 1011.9 1011.8 0.0
03/09:00am 15.3 10.4 9.9 70 2.8 NNW 26 35 14 19 1012.1 1012.0 0.8
03/08:30am 14.8 10.8 10.6 76 2.2 NNW 22 32 12 17 1012.1 1012.0 0.8
03/08:00am 13.5 9.2 10.9 84 1.4 N 24 30 13 16 1011.7 1011.6 0.8
03/07:30am 12.7 9.1 10.4 86 1.2 N 20 26 11 14 1011.6 1011.5 0.8
03/07:00am 11.7 7.9 9.9 89 0.9 N 20 24 11 13 1011.1 1011.1 0.8
03/06:30am 11.4 8.2 9.8 90 0.8 NNW 17 20 9 11 1010.9 1010.9 0.8
03/06:00am 11.6 8.5 10.2 91 0.7 NNW 17 20 9 11 1010.9 1010.9 0.8
03/05:30am 12.0 9.7 10.6 91 0.7 N 13 17 7 9 1010.6 1010.6 0.8
03/05:04am 12.3 9.3 10.7 90 0.8 NNW 17 22 9 12 1010.7 1010.7 0.8
03/05:00am 12.3 9.3 10.7 90 0.8 NNW 17 22 9 12 1010.7 1010.7 0.8
03/04:42am 12.8 10.7 11.0 89 0.9 NNW 13 28 7 15 1010.8 1010.8 0.8
03/04:30am 12.2 10.1 9.6 84 1.3 NNW 11 13 6 7 1010.5 1010.5 0.8
03/04:00am 12.5 9.1 9.3 81 1.6 NNW 17 20 9 11 1010.3 1010.3 0.8
03/03:30am 13.4 9.5 9.5 77 2.0 NW 20 30 11 16 1010.2 1010.2 0.8
03/03:00am 13.3 9.0 9.5 78 1.9 NW 22 35 12 19 1010.1 1010.1 0.8
03/02:30am 13.6 9.4 9.6 77 2.1 NW 22 32 12 17 1010.1 1010.1 0.8
03/02:00am 13.3 9.4 9.5 78 1.9 NNW 20 28 11 15 1010.2 1010.2 0.8
03/01:30am 13.8 10.1 9.6 76 2.2 NW 19 24 10 13 1010.5 1010.5 0.8
03/01:00am 13.9 10.6 9.7 76 2.2 NW 17 24 9 13 1010.5 1010.5 0.8
03/12:30am 14.5 10.9 9.9 74 2.4 NW 19 28 10 15 1010.7 1010.7 0.8
03/12:00am 14.8 11.6 10.0 73 2.5 NW 17 32 9 17 1010.6 1010.6 0.8
 
Date/Time
CST
Temp
°C
App
Temp
°C
Dew
Point
°C
Rel
Hum
%
Delta-T
°C
Wind Press
QNH
hPa
Press
MSL
hPa
Rain since
9am
mm
Dir  Spd
km/h
Gust
km/h
Spd
kts
Gust
kts
02/11:30pm 12.9 11.2 11.1 89 0.9 N 11 11 6 6 1010.8 1010.8 0.8
02/11:00pm 13.4 12.2 11.5 88 1.0 NNW 9 11 5 6 1011.1 1011.1 0.8
02/10:30pm 14.5 12.3 12.0 85 1.4 NNE 15 17 8 9 1011.4 1011.3 0.6
02/10:00pm 14.3 11.6 11.6 84 1.4 NNE 17 20 9 11 1011.4 1011.3 0.6
02/09:30pm 14.2 11.2 12.1 87 1.1 NNE 19 24 10 13 1011.3 1011.2 0.6
02/09:00pm 13.5 11.6 11.7 89 1.0 N 13 17 7 9 1011.1 1011.1 0.6
02/08:30pm 13.4 11.1 11.8 90 0.9 NNE 15 19 8 10 1010.9 1010.9 0.6
02/08:00pm 13.6 11.7 11.8 89 1.0 N 13 15 7 8 1010.7 1010.7 0.6
02/07:30pm 14.7 12.2 12.2 85 1.4 NNE 17 24 9 13 1010.4 1010.4 0.6
02/07:00pm 14.4 12.2 12.1 86 1.2 NE 15 19 8 10 1010.4 1010.4 0.6
02/06:30pm 15.1 14.5 12.4 84 1.5 NNE 7 11 4 6 1010.3 1010.3 0.6
02/06:00pm 15.6 15.2 12.5 82 1.7 NW 6 9 3 5 1010.2 1010.2 0.6
02/05:30pm 16.3 14.4 13.0 81 1.8 NW 15 22 8 12 1010.1 1010.1 0.6
02/05:00pm 17.0 14.8 13.3 79 2.1 NW 17 28 9 15 1009.8 1009.8 0.6
02/04:30pm 17.8 16.3 14.1 79 2.1 NW 15 24 8 13 1009.3 1009.3 0.6
02/04:00pm 17.4 16.1 14.9 85 1.5 NNW 15 26 8 14 1009.5 1009.5 0.6
02/03:30pm 17.0 16.4 15.7 92 0.8 N 13 17 7 9 1009.1 1009.1 0.6
02/03:00pm 17.2 16.5 15.4 89 1.1 N 13 15 7 8 1008.6 1008.6 0.6
02/02:30pm 18.3 17.0 14.8 80 2.0 NW 15 24 8 13 1009.1 1009.1 0.2
02/02:00pm 19.5 16.6 15.2 76 2.5 NNW 24 33 13 18 1008.7 1008.7 0.2
02/01:30pm 21.8 16.2 13.2 58 5.0 N 35 46 19 25 1008.5 1008.5 0.0
02/01:00pm 21.4 14.4 13.8 62 4.4 NNE 43 50 23 27 1008.4 1008.4 0.0
02/12:30pm 20.2 15.2 13.4 65 3.9 N 32 41 17 22 1008.8 1008.8 0.0
02/12:00pm 19.0 14.8 13.6 71 3.1 NNE 28 35 15 19 1009.3 1009.3 0.0
02/11:30am 18.8 15.2 14.1 74 2.7 N 26 37 14 20 1009.9 1009.9 0.0
02/11:00am 18.5 14.7 13.6 73 2.8 NNE 26 32 14 17 1010.4 1010.4 0.0
02/10:30am 18.0 13.5 12.5 70 3.1 N 28 35 15 19 1010.5 1010.5 0.0
02/10:00am 18.1 13.6 11.4 65 3.7 NNE 26 33 14 18 1010.5 1010.5 0.0
02/09:30am 19.2 14.1 10.5 57 4.7 NNE 28 35 15 19 1010.7 1010.7 0.0
02/09:00am 18.7 12.8 10.5 59 4.4 NNE 32 43 17 23 1010.9 1010.9 0.0
02/08:30am 18.3 13.4 9.9 58 4.5 N 26 33 14 18 1011.0 1011.0 0.0
02/08:00am 17.9 13.1 9.0 56 4.6 N 24 32 13 17 1010.3 1010.3 0.0
02/07:30am 17.0 12.5 8.7 58 4.3 N 22 28 12 15 1010.4 1010.4 0.0
02/07:00am 16.2 11.6 8.2 59 4.1 N 22 28 12 15 1010.6 1010.6 0.0
02/06:30am 17.1 11.8 8.5 57 4.4 N 26 32 14 17 1010.6 1010.6 0.0
02/06:00am 16.5 12.0 8.5 59 4.1 N 22 28 12 15 1010.7 1010.7 0.0
02/05:30am 15.9 11.8 8.6 62 3.7 N 20 22 11 12 1010.9 1010.9 0.0
02/05:00am 15.7 11.7 8.2 61 3.8 N 19 20 10 11 1011.0 1011.0 0.0
02/04:30am 15.8 11.6 8.3 61 3.8 N 20 24 11 13 1011.0 1011.0 0.0
02/04:00am 15.6 11.6 8.1 61 3.8 N 19 20 10 11 1011.3 1011.2 0.0
02/03:30am 15.8 11.6 8.1 60 3.9 N 20 22 11 12 1011.5 1011.4 0.0
02/03:00am 14.8 11.5 8.1 64 3.4 N 15 17 8 9 1011.7 1011.6 0.0
02/02:30am 15.1 11.8 7.9 62 3.6 N 15 17 8 9 1012.2 1012.1 0.0
02/02:00am 16.2 13.2 7.9 58 4.2 N 13 15 7 8 1012.5 1012.4 0.0
02/01:30am 17.1 13.4 8.0 55 4.6 N 17 20 9 11 1012.9 1012.9 0.0
02/01:00am 18.3 14.1 8.3 52 5.2 N 20 22 11 12 1013.2 1013.2 0.0
02/12:30am 16.9 13.0 8.6 58 4.3 N 19 20 10 11 1013.5 1013.5 0.0
02/12:00am 17.5 14.7 8.4 55 4.7 NNW 13 15 7 8 1013.6 1013.6 0.0
 
Date/Time
CST
Temp
°C
App
Temp
°C
Dew
Point
°C
Rel
Hum
%
Delta-T
°C
Wind Press
QNH
hPa
Press
MSL
hPa
Rain since
9am
mm
Dir  Spd
km/h
Gust
km/h
Spd
kts
Gust
kts
01/11:30pm 17.8 15.4 8.6 55 4.8 NNW 11 13 6 7 1013.8 1013.8 0.0
01/11:00pm 17.9 15.5 8.5 54 4.8 N 11 13 6 7 1014.2 1014.2 0.0
01/10:30pm 18.3 15.5 8.6 53 5.0 NNW 13 15 7 8 1014.6 1014.6 0.0
01/10:00pm 18.4 15.3 8.7 53 5.0 N 15 17 8 9 1014.8 1014.8 0.0
01/09:30pm 19.0 15.8 8.6 51 5.4 N 15 17 8 9 1014.9 1014.9 0.0
01/09:00pm 19.7 16.6 8.7 49 5.8 NNW 15 17 8 9 1015.2 1015.2 0.0
01/08:30pm 20.7 17.9 8.7 46 6.3 N 13 17 7 9 1015.2 1015.2 0.0
01/08:00pm 21.0 17.9 8.9 46 6.4 N 15 17 8 9 1015.4 1015.4 0.0
01/07:30pm 22.6 19.6 9.4 43 7.1 N 15 17 8 9 1015.5 1015.5 0.0

Other formats

Comma delimited format used in spreadsheet applications
http://www.bom.gov.au/fwo/IDS60801/IDS60801.95818.axf

JavaScript Object Notation format (JSON) in row-major order
http://www.bom.gov.au/fwo/IDS60801/IDS60801.95818.json

Data quality

Most of these data are generated automatically and are frequently updated. Quality checks on data are not normally performed. It is possible for incorrect values to appear. Refer to information at About Latest Weather Observations and please check the disclaimer before using these data.